sensor_id;sensor_type;location;lat;lon;timestamp;pressure;altitude;pressure_sealevel;temperature;humidity
16355;BME280;8287;51.644;8.494;2023-07-13T00:00:48;100210.34;;;21.10;63.85
16355;BME280;8287;51.644;8.494;2023-07-13T00:03:15;100213.38;;;21.01;63.66
16355;BME280;8287;51.644;8.494;2023-07-13T00:05:42;100219.09;;;20.96;63.69
16355;BME280;8287;51.644;8.494;2023-07-13T00:08:09;100219.47;;;20.91;63.70
16355;BME280;8287;51.644;8.494;2023-07-13T00:10:39;100215.22;;;20.87;64.43
16355;BME280;8287;51.644;8.494;2023-07-13T00:13:06;100221.66;;;20.82;64.21
16355;BME280;8287;51.644;8.494;2023-07-13T00:15:33;100223.22;;;20.80;65.08
16355;BME280;8287;51.644;8.494;2023-07-13T00:18:02;100227.41;;;20.74;64.82
16355;BME280;8287;51.644;8.494;2023-07-13T00:20:28;100233.09;;;20.65;65.46
16355;BME280;8287;51.644;8.494;2023-07-13T00:22:55;100230.75;;;20.60;64.76
16355;BME280;8287;51.644;8.494;2023-07-13T00:25:22;100218.81;;;20.58;64.83
16355;BME280;8287;51.644;8.494;2023-07-13T00:27:53;100225.25;;;20.46;65.46
16355;BME280;8287;51.644;8.494;2023-07-13T00:30:20;100228.66;;;20.40;66.23
16355;BME280;8287;51.644;8.494;2023-07-13T00:32:47;100233.22;;;20.36;66.42
16355;BME280;8287;51.644;8.494;2023-07-13T00:35:15;100221.31;;;20.34;66.34
16355;BME280;8287;51.644;8.494;2023-07-13T00:37:42;100222.78;;;20.28;66.81
16355;BME280;8287;51.644;8.494;2023-07-13T00:40:11;100229.69;;;20.29;66.13
16355;BME280;8287;51.644;8.494;2023-07-13T00:42:38;100224.31;;;20.29;66.53
16355;BME280;8287;51.644;8.494;2023-07-13T00:46:02;100221.94;;;20.24;66.94
16355;BME280;8287;51.644;8.494;2023-07-13T00:47:55;100224.59;;;20.17;66.88
16355;BME280;8287;51.644;8.494;2023-07-13T00:50:23;100229.53;;;20.11;67.68
16355;BME280;8287;51.644;8.494;2023-07-13T00:52:53;100226.09;;;20.14;67.07
16355;BME280;8287;51.644;8.494;2023-07-13T00:55:23;100229.66;;;20.25;66.60
16355;BME280;8287;51.644;8.494;2023-07-13T00:57:50;100236.53;;;20.19;67.27
16355;BME280;8287;51.644;8.494;2023-07-13T01:00:17;100225.72;;;20.16;67.38
16355;BME280;8287;51.644;8.494;2023-07-13T01:02:45;100235.00;;;20.22;66.90
16355;BME280;8287;51.644;8.494;2023-07-13T01:05:16;100226.53;;;20.20;66.72
16355;BME280;8287;51.644;8.494;2023-07-13T01:07:44;100228.09;;;20.21;66.50
16355;BME280;8287;51.644;8.494;2023-07-13T01:10:12;100222.88;;;20.02;67.56
16355;BME280;8287;51.644;8.494;2023-07-13T01:12:39;100221.34;;;20.01;66.78
16355;BME280;8287;51.644;8.494;2023-07-13T01:15:33;100216.59;;;19.87;67.51
16355;BME280;8287;51.644;8.494;2023-07-13T01:18:00;100227.69;;;19.86;67.16
16355;BME280;8287;51.644;8.494;2023-07-13T01:20:29;100230.47;;;19.93;66.69
16355;BME280;8287;51.644;8.494;2023-07-13T01:22:58;100230.38;;;19.86;66.96
16355;BME280;8287;51.644;8.494;2023-07-13T01:25:25;100228.47;;;19.86;66.78
16355;BME280;8287;51.644;8.494;2023-07-13T01:27:51;100224.22;;;19.85;66.46
16355;BME280;8287;51.644;8.494;2023-07-13T01:30:18;100233.44;;;19.84;66.55
16355;BME280;8287;51.644;8.494;2023-07-13T01:32:44;100235.72;;;19.82;66.38
16355;BME280;8287;51.644;8.494;2023-07-13T01:35:12;100233.69;;;19.72;66.44
16355;BME280;8287;51.644;8.494;2023-07-13T01:37:38;100237.88;;;19.70;66.95
16355;BME280;8287;51.644;8.494;2023-07-13T01:40:08;100236.56;;;19.57;67.11
16355;BME280;8287;51.644;8.494;2023-07-13T01:42:36;100239.19;;;19.50;66.94
16355;BME280;8287;51.644;8.494;2023-07-13T01:45:03;100230.78;;;19.55;65.83
16355;BME280;8287;51.644;8.494;2023-07-13T01:47:30;100235.72;;;19.49;66.56
16355;BME280;8287;51.644;8.494;2023-07-13T01:49:57;100241.81;;;19.46;66.88
16355;BME280;8287;51.644;8.494;2023-07-13T01:52:24;100246.81;;;19.48;66.54
16355;BME280;8287;51.644;8.494;2023-07-13T01:54:50;100241.38;;;19.44;65.79
16355;BME280;8287;51.644;8.494;2023-07-13T01:57:18;100239.00;;;19.36;66.03
16355;BME280;8287;51.644;8.494;2023-07-13T01:59:45;100248.50;;;19.30;66.75
16355;BME280;8287;51.644;8.494;2023-07-13T02:02:11;100238.47;;;19.27;66.21
16355;BME280;8287;51.644;8.494;2023-07-13T02:04:38;100240.03;;;19.28;66.08
16355;BME280;8287;51.644;8.494;2023-07-13T02:07:05;100241.28;;;19.34;65.19
16355;BME280;8287;51.644;8.494;2023-07-13T02:09:31;100237.84;;;19.37;64.37
16355;BME280;8287;51.644;8.494;2023-07-13T02:11:58;100243.16;;;19.33;64.45
16355;BME280;8287;51.644;8.494;2023-07-13T02:14:26;100253.16;;;19.33;64.87
16355;BME280;8287;51.644;8.494;2023-07-13T02:16:52;100242.66;;;19.24;64.46
16355;BME280;8287;51.644;8.494;2023-07-13T02:19:19;100250.38;;;19.26;64.98
16355;BME280;8287;51.644;8.494;2023-07-13T02:21:46;100250.72;;;19.24;64.87
16355;BME280;8287;51.644;8.494;2023-07-13T02:24:12;100249.19;;;19.23;64.57
16355;BME280;8287;51.644;8.494;2023-07-13T02:26:42;100254.41;;;19.16;64.71
16355;BME280;8287;51.644;8.494;2023-07-13T02:29:10;100253.16;;;19.10;64.68
16355;BME280;8287;51.644;8.494;2023-07-13T02:31:38;100251.31;;;19.14;64.56
16355;BME280;8287;51.644;8.494;2023-07-13T02:34:04;100246.94;;;19.03;64.49
16355;BME280;8287;51.644;8.494;2023-07-13T02:36:31;100241.84;;;18.94;65.10
16355;BME280;8287;51.644;8.494;2023-07-13T02:39:01;100247.66;;;19.00;64.37
16355;BME280;8287;51.644;8.494;2023-07-13T02:41:28;100237.34;;;19.02;63.85
16355;BME280;8287;51.644;8.494;2023-07-13T02:43:55;100241.16;;;19.01;64.20
16355;BME280;8287;51.644;8.494;2023-07-13T02:46:28;100241.16;;;19.01;63.59
16355;BME280;8287;51.644;8.494;2023-07-13T02:48:56;100244.97;;;19.00;63.65
16355;BME280;8287;51.644;8.494;2023-07-13T02:51:22;100250.59;;;18.91;63.54
16355;BME280;8287;51.644;8.494;2023-07-13T02:53:49;100249.03;;;18.90;63.48
16355;BME280;8287;51.644;8.494;2023-07-13T02:56:16;100250.19;;;18.89;63.26
16355;BME280;8287;51.644;8.494;2023-07-13T02:58:42;100252.19;;;18.96;62.62
16355;BME280;8287;51.644;8.494;2023-07-13T03:01:10;100245.56;;;18.90;62.66
16355;BME280;8287;51.644;8.494;2023-07-13T03:03:37;100249.84;;;18.91;62.95
16355;BME280;8287;51.644;8.494;2023-07-13T03:06:05;100249.66;;;18.80;63.10
16355;BME280;8287;51.644;8.494;2023-07-13T03:08:33;100244.66;;;18.79;63.56
16355;BME280;8287;51.644;8.494;2023-07-13T03:11:00;100251.16;;;18.78;63.42
16355;BME280;8287;51.644;8.494;2023-07-13T03:13:27;100243.94;;;18.82;62.70
16355;BME280;8287;51.644;8.494;2023-07-13T03:15:54;100260.41;;;18.80;62.95
16355;BME280;8287;51.644;8.494;2023-07-13T03:18:20;100256.47;;;18.74;62.94
16355;BME280;8287;51.644;8.494;2023-07-13T03:20:50;100251.03;;;18.71;62.99
16355;BME280;8287;51.644;8.494;2023-07-13T03:23:18;100250.44;;;18.58;63.97
16355;BME280;8287;51.644;8.494;2023-07-13T03:25:45;100261.97;;;18.59;63.25
16355;BME280;8287;51.644;8.494;2023-07-13T03:28:12;100253.97;;;18.62;62.99
16355;BME280;8287;51.644;8.494;2023-07-13T03:30:39;100262.66;;;18.56;63.56
16355;BME280;8287;51.644;8.494;2023-07-13T03:33:06;100271.56;;;18.60;63.01
16355;BME280;8287;51.644;8.494;2023-07-13T03:35:33;100272.28;;;18.57;63.70
16355;BME280;8287;51.644;8.494;2023-07-13T03:38:00;100271.78;;;18.51;63.96
16355;BME280;8287;51.644;8.494;2023-07-13T03:40:28;100265.13;;;18.42;63.99
16355;BME280;8287;51.644;8.494;2023-07-13T03:42:54;100273.31;;;18.49;63.53
16355;BME280;8287;51.644;8.494;2023-07-13T03:45:21;100270.63;;;18.49;63.74
16355;BME280;8287;51.644;8.494;2023-07-13T03:47:48;100280.16;;;18.46;63.46
16355;BME280;8287;51.644;8.494;2023-07-13T03:50:14;100290.81;;;18.43;63.65
16355;BME280;8287;51.644;8.494;2023-07-13T03:52:41;100284.25;;;18.40;63.66
16355;BME280;8287;51.644;8.494;2023-07-13T03:55:08;100283.00;;;18.34;64.10
16355;BME280;8287;51.644;8.494;2023-07-13T03:57:36;100287.66;;;18.37;64.14
16355;BME280;8287;51.644;8.494;2023-07-13T04:00:04;100285.41;;;18.39;64.21
16355;BME280;8287;51.644;8.494;2023-07-13T04:02:31;100285.41;;;18.39;63.34
16355;BME280;8287;51.644;8.494;2023-07-13T04:04:57;100295.66;;;18.34;63.90
16355;BME280;8287;51.644;8.494;2023-07-13T04:07:24;100295.28;;;18.35;63.81
16355;BME280;8287;51.644;8.494;2023-07-13T04:09:52;100299.53;;;18.36;64.14
16355;BME280;8287;51.644;8.494;2023-07-13T04:12:18;100296.06;;;18.36;63.95
16355;BME280;8287;51.644;8.494;2023-07-13T04:14:46;100294.03;;;18.29;64.00
16355;BME280;8287;51.644;8.494;2023-07-13T04:17:13;100305.53;;;18.30;64.66
16355;BME280;8287;51.644;8.494;2023-07-13T04:19:39;100302.16;;;18.33;64.24
16355;BME280;8287;51.644;8.494;2023-07-13T04:22:06;100299.81;;;18.31;64.66
16355;BME280;8287;51.644;8.494;2023-07-13T04:24:33;100299.41;;;18.29;65.24
16355;BME280;8287;51.644;8.494;2023-07-13T04:26:59;100305.41;;;18.26;65.48
16355;BME280;8287;51.644;8.494;2023-07-13T04:29:28;100316.53;;;18.25;65.32
16355;BME280;8287;51.644;8.494;2023-07-13T04:31:56;100306.16;;;18.23;65.45
16355;BME280;8287;51.644;8.494;2023-07-13T04:34:23;100310.25;;;18.36;64.22
16355;BME280;8287;51.644;8.494;2023-07-13T04:36:50;100310.25;;;18.36;64.63
16355;BME280;8287;51.644;8.494;2023-07-13T04:39:17;100307.84;;;18.31;65.90
16355;BME280;8287;51.644;8.494;2023-07-13T04:41:44;100308.56;;;18.28;66.21
16355;BME280;8287;51.644;8.494;2023-07-13T04:44:10;100303.63;;;18.30;65.62
16355;BME280;8287;51.644;8.494;2023-07-13T04:46:38;100309.59;;;18.43;64.97
16355;BME280;8287;51.644;8.494;2023-07-13T04:49:05;100311.97;;;18.48;65.16
16355;BME280;8287;51.644;8.494;2023-07-13T04:51:32;100301.75;;;18.53;64.42
16355;BME280;8287;51.644;8.494;2023-07-13T04:53:59;100310.97;;;18.56;65.04
16355;BME280;8287;51.644;8.494;2023-07-13T04:56:25;100313.31;;;18.57;65.17
16355;BME280;8287;51.644;8.494;2023-07-13T04:58:52;100313.38;;;18.61;64.47
16355;BME280;8287;51.644;8.494;2023-07-13T05:01:18;100307.72;;;18.66;64.67
16355;BME280;8287;51.644;8.494;2023-07-13T05:03:45;100320.13;;;18.74;64.51
16355;BME280;8287;51.644;8.494;2023-07-13T05:06:13;100313.63;;;18.75;64.54
16355;BME280;8287;51.644;8.494;2023-07-13T05:08:40;100314.44;;;18.79;65.07
16355;BME280;8287;51.644;8.494;2023-07-13T05:11:07;100320.66;;;18.83;64.62
16355;BME280;8287;51.644;8.494;2023-07-13T05:13:33;100324.53;;;18.85;64.17
16355;BME280;8287;51.644;8.494;2023-07-13T05:16:04;100325.50;;;18.96;64.31
16355;BME280;8287;51.644;8.494;2023-07-13T05:18:31;100332.06;;;18.99;63.45
16355;BME280;8287;51.644;8.494;2023-07-13T05:20:59;100328.94;;;18.97;64.23
16355;BME280;8287;51.644;8.494;2023-07-13T05:23:29;100318.91;;;18.94;63.85
16355;BME280;8287;51.644;8.494;2023-07-13T05:25:56;100332.59;;;19.08;63.54
16355;BME280;8287;51.644;8.494;2023-07-13T05:28:23;100336.50;;;19.14;63.45
16355;BME280;8287;51.644;8.494;2023-07-13T05:30:50;100332.81;;;19.22;62.67
16355;BME280;8287;51.644;8.494;2023-07-13T05:33:17;100334.53;;;19.33;63.05
16355;BME280;8287;51.644;8.494;2023-07-13T05:35:44;100339.22;;;19.40;62.99
16355;BME280;8287;51.644;8.494;2023-07-13T05:38:11;100343.91;;;19.43;62.84
16355;BME280;8287;51.644;8.494;2023-07-13T05:40:39;100343.28;;;19.53;62.22
16355;BME280;8287;51.644;8.494;2023-07-13T05:43:05;100344.06;;;19.57;62.14
16355;BME280;8287;51.644;8.494;2023-07-13T05:45:32;100346.06;;;19.60;62.25
16355;BME280;8287;51.644;8.494;2023-07-13T05:47:58;100336.84;;;19.61;62.01
16355;BME280;8287;51.644;8.494;2023-07-13T05:50:25;100351.84;;;19.62;62.66
16355;BME280;8287;51.644;8.494;2023-07-13T05:52:53;100353.03;;;19.64;62.40
16355;BME280;8287;51.644;8.494;2023-07-13T05:55:19;100341.19;;;19.69;62.53
16355;BME280;8287;51.644;8.494;2023-07-13T05:57:48;100350.50;;;19.75;62.74
16355;BME280;8287;51.644;8.494;2023-07-13T06:00:15;100350.94;;;19.80;62.26
16355;BME280;8287;51.644;8.494;2023-07-13T06:02:42;100356.78;;;19.86;62.35
16355;BME280;8287;51.644;8.494;2023-07-13T06:05:09;100362.56;;;19.88;62.39
16355;BME280;8287;51.644;8.494;2023-07-13T06:07:36;100364.44;;;19.84;61.93
16355;BME280;8287;51.644;8.494;2023-07-13T06:10:02;100358.97;;;19.77;62.34
16355;BME280;8287;51.644;8.494;2023-07-13T06:12:29;100358.22;;;19.80;62.65
16355;BME280;8287;51.644;8.494;2023-07-13T06:14:57;100362.91;;;19.57;63.35
16355;BME280;8287;51.644;8.494;2023-07-13T06:17:24;100364.16;;;19.63;63.34
16355;BME280;8287;51.644;8.494;2023-07-13T06:19:50;100363.84;;;19.68;63.49
16355;BME280;8287;51.644;8.494;2023-07-13T06:22:17;100367.34;;;19.72;63.42
16355;BME280;8287;51.644;8.494;2023-07-13T06:24:43;100366.00;;;19.85;63.58
16355;BME280;8287;51.644;8.494;2023-07-13T06:27:10;100367.59;;;19.89;63.59
16355;BME280;8287;51.644;8.494;2023-07-13T06:29:37;100374.63;;;19.97;63.09
16355;BME280;8287;51.644;8.494;2023-07-13T06:32:07;100374.91;;;19.92;63.14
16355;BME280;8287;51.644;8.494;2023-07-13T06:34:34;100372.09;;;19.82;63.24
16355;BME280;8287;51.644;8.494;2023-07-13T06:37:01;100372.00;;;19.75;63.21
16355;BME280;8287;51.644;8.494;2023-07-13T06:39:27;100375.97;;;19.84;63.73
16355;BME280;8287;51.644;8.494;2023-07-13T06:41:54;100376.50;;;19.97;62.81
16355;BME280;8287;51.644;8.494;2023-07-13T06:44:20;100373.81;;;19.97;62.75
16355;BME280;8287;51.644;8.494;2023-07-13T06:46:47;100364.78;;;20.08;62.68
16355;BME280;8287;51.644;8.494;2023-07-13T06:49:15;100365.63;;;20.12;62.63
16355;BME280;8287;51.644;8.494;2023-07-13T06:51:42;100381.94;;;20.30;62.31
16355;BME280;8287;51.644;8.494;2023-07-13T06:54:08;100377.00;;;20.35;61.62
16355;BME280;8287;51.644;8.494;2023-07-13T06:56:35;100368.63;;;20.40;61.68
16355;BME280;8287;51.644;8.494;2023-07-13T06:59:01;100374.13;;;20.50;61.53
16355;BME280;8287;51.644;8.494;2023-07-13T07:01:28;100371.91;;;20.59;61.49
16355;BME280;8287;51.644;8.494;2023-07-13T07:03:55;100370.06;;;20.67;60.92
16355;BME280;8287;51.644;8.494;2023-07-13T07:06:23;100385.09;;;20.71;60.83
16355;BME280;8287;51.644;8.494;2023-07-13T07:08:50;100378.19;;;20.70;60.71
16355;BME280;8287;51.644;8.494;2023-07-13T07:11:18;100373.66;;;20.81;60.72
16355;BME280;8287;51.644;8.494;2023-07-13T07:13:45;100376.78;;;20.83;60.98
16355;BME280;8287;51.644;8.494;2023-07-13T07:16:12;100380.44;;;21.01;60.18
16355;BME280;8287;51.644;8.494;2023-07-13T07:18:39;100376.25;;;21.11;59.88
16355;BME280;8287;51.644;8.494;2023-07-13T07:21:05;100373.59;;;21.14;60.91
16355;BME280;8287;51.644;8.494;2023-07-13T07:23:33;100372.91;;;21.24;59.92
16355;BME280;8287;51.644;8.494;2023-07-13T07:26:00;100371.03;;;21.28;59.46
16355;BME280;8287;51.644;8.494;2023-07-13T07:28:27;100373.31;;;21.26;59.22
16355;BME280;8287;51.644;8.494;2023-07-13T07:30:56;100388.34;;;21.27;59.09
16355;BME280;8287;51.644;8.494;2023-07-13T07:33:23;100384.41;;;21.18;59.33
16355;BME280;8287;51.644;8.494;2023-07-13T07:35:50;100385.97;;;21.22;59.44
16355;BME280;8287;51.644;8.494;2023-07-13T07:38:17;100385.63;;;21.24;59.47
16355;BME280;8287;51.644;8.494;2023-07-13T07:40:45;100379.88;;;21.32;59.27
16355;BME280;8287;51.644;8.494;2023-07-13T07:43:12;100388.25;;;21.17;58.73
16355;BME280;8287;51.644;8.494;2023-07-13T07:45:40;100389.94;;;21.35;59.57
16355;BME280;8287;51.644;8.494;2023-07-13T07:48:07;100381.81;;;21.28;59.50
16355;BME280;8287;51.644;8.494;2023-07-13T07:50:35;100393.88;;;21.48;58.89
16355;BME280;8287;51.644;8.494;2023-07-13T07:53:02;100397.03;;;21.61;58.90
16355;BME280;8287;51.644;8.494;2023-07-13T07:55:33;100385.63;;;21.78;58.19
16355;BME280;8287;51.644;8.494;2023-07-13T07:58:01;100389.25;;;22.06;58.24
16355;BME280;8287;51.644;8.494;2023-07-13T08:00:27;100398.88;;;22.07;57.59
16355;BME280;8287;51.644;8.494;2023-07-13T08:02:56;100398.56;;;22.19;57.14
16355;BME280;8287;51.644;8.494;2023-07-13T08:05:23;100390.44;;;22.12;57.45
16355;BME280;8287;51.644;8.494;2023-07-13T08:07:49;100398.41;;;21.91;57.02
16355;BME280;8287;51.644;8.494;2023-07-13T08:10:16;100397.69;;;21.94;57.03
16355;BME280;8287;51.644;8.494;2023-07-13T08:12:43;100393.47;;;22.00;57.96
16355;BME280;8287;51.644;8.494;2023-07-13T08:15:13;100390.41;;;22.05;57.73
16355;BME280;8287;51.644;8.494;2023-07-13T08:17:40;100404.78;;;22.34;57.49
16355;BME280;8287;51.644;8.494;2023-07-13T08:20:08;100402.06;;;22.27;56.75
16355;BME280;8287;51.644;8.494;2023-07-13T08:22:35;100396.00;;;22.51;57.67
16355;BME280;8287;51.644;8.494;2023-07-13T08:25:02;100396.81;;;22.72;56.60
16355;BME280;8287;51.644;8.494;2023-07-13T08:27:29;100399.91;;;22.67;56.01
16355;BME280;8287;51.644;8.494;2023-07-13T08:29:56;100406.03;;;22.57;56.28
16355;BME280;8287;51.644;8.494;2023-07-13T08:32:24;100406.03;;;22.57;57.15
16355;BME280;8287;51.644;8.494;2023-07-13T08:34:51;100398.34;;;22.66;57.04
16355;BME280;8287;51.644;8.494;2023-07-13T08:37:18;100397.56;;;22.55;56.78
16355;BME280;8287;51.644;8.494;2023-07-13T08:39:46;100400.69;;;22.68;56.66
16355;BME280;8287;51.644;8.494;2023-07-13T08:42:22;100398.38;;;22.73;56.36
16355;BME280;8287;51.644;8.494;2023-07-13T08:44:57;100392.56;;;22.64;56.46
16355;BME280;8287;51.644;8.494;2023-07-13T08:47:34;100395.31;;;22.78;56.80
16355;BME280;8287;51.644;8.494;2023-07-13T08:50:02;100398.78;;;22.89;56.93
16355;BME280;8287;51.644;8.494;2023-07-13T08:52:32;100393.75;;;22.91;56.19
16355;BME280;8287;51.644;8.494;2023-07-13T08:55:04;100392.22;;;22.97;55.25
16355;BME280;8287;51.644;8.494;2023-07-13T08:57:33;100395.31;;;23.10;55.08
16355;BME280;8287;51.644;8.494;2023-07-13T09:00:01;100385.28;;;22.89;55.20
16355;BME280;8287;51.644;8.494;2023-07-13T09:02:40;100384.56;;;23.17;55.76
16355;BME280;8287;51.644;8.494;2023-07-13T09:05:13;100390.72;;;23.17;55.10
16355;BME280;8287;51.644;8.494;2023-07-13T09:07:55;100386.47;;;23.34;54.87
16355;BME280;8287;51.644;8.494;2023-07-13T09:10:28;100388.38;;;23.54;53.65
16355;BME280;8287;51.644;8.494;2023-07-13T09:13:04;100384.13;;;23.64;53.86
16355;BME280;8287;51.644;8.494;2023-07-13T09:15:37;100389.50;;;23.81;54.72
16355;BME280;8287;51.644;8.494;2023-07-13T09:18:12;100387.56;;;23.78;53.27
16355;BME280;8287;51.644;8.494;2023-07-13T09:20:44;100389.50;;;23.74;53.47
16355;BME280;8287;51.644;8.494;2023-07-13T09:23:14;100390.66;;;23.80;52.98
16355;BME280;8287;51.644;8.494;2023-07-13T09:25:45;100389.13;;;23.79;53.22
16355;BME280;8287;51.644;8.494;2023-07-13T09:28:15;100382.19;;;23.68;53.52
16355;BME280;8287;51.644;8.494;2023-07-13T09:30:49;100394.53;;;23.69;53.79
16355;BME280;8287;51.644;8.494;2023-07-13T09:33:20;100402.28;;;23.70;53.22
16355;BME280;8287;51.644;8.494;2023-07-13T09:35:46;100404.22;;;23.59;53.87
16355;BME280;8287;51.644;8.494;2023-07-13T09:38:15;100403.03;;;23.78;54.21
16355;BME280;8287;51.644;8.494;2023-07-13T09:41:02;100403.81;;;23.78;53.92
16355;BME280;8287;51.644;8.494;2023-07-13T09:43:34;100406.16;;;23.52;52.27
16355;BME280;8287;51.644;8.494;2023-07-13T09:46:01;100408.50;;;23.29;53.54
16355;BME280;8287;51.644;8.494;2023-07-13T09:48:35;100405.81;;;23.18;53.85
16355;BME280;8287;51.644;8.494;2023-07-13T09:51:09;100400.00;;;23.41;54.22
16355;BME280;8287;51.644;8.494;2023-07-13T09:53:41;100403.06;;;23.60;54.36
16355;BME280;8287;51.644;8.494;2023-07-13T09:56:19;100398.78;;;23.87;53.18
16355;BME280;8287;51.644;8.494;2023-07-13T09:58:46;100403.75;;;24.03;52.53
16355;BME280;8287;51.644;8.494;2023-07-13T10:01:12;100399.03;;;24.24;52.68
16355;BME280;8287;51.644;8.494;2023-07-13T10:03:52;100398.94;;;24.45;51.07
16355;BME280;8287;51.644;8.494;2023-07-13T10:06:21;100400.84;;;24.51;50.79
16355;BME280;8287;51.644;8.494;2023-07-13T10:08:49;100406.31;;;24.37;50.21
16355;BME280;8287;51.644;8.494;2023-07-13T10:11:19;100407.47;;;24.43;50.32
16355;BME280;8287;51.644;8.494;2023-07-13T10:13:51;100409.34;;;24.53;51.47
16355;BME280;8287;51.644;8.494;2023-07-13T10:16:21;100406.31;;;24.37;49.06
16355;BME280;8287;51.644;8.494;2023-07-13T10:18:53;100413.59;;;24.51;49.37
16355;BME280;8287;51.644;8.494;2023-07-13T10:21:23;100410.47;;;24.66;50.21
16355;BME280;8287;51.644;8.494;2023-07-13T10:23:55;100415.78;;;24.80;49.75
16355;BME280;8287;51.644;8.494;2023-07-13T10:26:27;100407.16;;;24.99;49.32
16355;BME280;8287;51.644;8.494;2023-07-13T10:28:57;100407.47;;;25.12;48.70
16355;BME280;8287;51.644;8.494;2023-07-13T10:31:25;100405.97;;;25.04;47.86
16355;BME280;8287;51.644;8.494;2023-07-13T10:33:53;100407.88;;;25.07;48.25
16355;BME280;8287;51.644;8.494;2023-07-13T10:36:39;100399.06;;;24.96;48.44
16355;BME280;8287;51.644;8.494;2023-07-13T10:39:14;100408.06;;;24.82;49.26
16355;BME280;8287;51.644;8.494;2023-07-13T10:41:43;100417.06;;;24.65;47.51
16355;BME280;8287;51.644;8.494;2023-07-13T10:44:19;100420.28;;;24.36;48.55
16355;BME280;8287;51.644;8.494;2023-07-13T10:46:51;100419.03;;;24.54;47.52
16355;BME280;8287;51.644;8.494;2023-07-13T10:49:20;100413.53;;;24.75;48.71
16355;BME280;8287;51.644;8.494;2023-07-13T10:51:48;100416.94;;;24.83;49.07
16355;BME280;8287;51.644;8.494;2023-07-13T10:54:19;100417.41;;;24.74;48.59
16355;BME280;8287;51.644;8.494;2023-07-13T10:56:50;100412.00;;;24.67;48.29
16355;BME280;8287;51.644;8.494;2023-07-13T10:59:24;100422.13;;;24.53;48.22
16355;BME280;8287;51.644;8.494;2023-07-13T11:01:56;100420.56;;;24.59;48.52
16355;BME280;8287;51.644;8.494;2023-07-13T11:04:26;100416.72;;;24.60;49.30
16355;BME280;8287;51.644;8.494;2023-07-13T11:06:58;100423.53;;;24.85;47.73
16355;BME280;8287;51.644;8.494;2023-07-13T11:09:37;100409.56;;;24.90;47.92
16355;BME280;8287;51.644;8.494;2023-07-13T11:12:26;100408.66;;;25.07;48.66
16355;BME280;8287;51.644;8.494;2023-07-13T11:15:10;100416.16;;;24.89;47.30
16355;BME280;8287;51.644;8.494;2023-07-13T11:17:47;100412.31;;;24.83;47.75
16355;BME280;8287;51.644;8.494;2023-07-13T11:20:36;100403.66;;;25.02;48.38
16355;BME280;8287;51.644;8.494;2023-07-13T11:23:19;100402.63;;;25.37;47.63
16355;BME280;8287;51.644;8.494;2023-07-13T11:25:47;100401.69;;;25.54;46.51
16355;BME280;8287;51.644;8.494;2023-07-13T11:28:17;100396.75;;;25.42;45.12
16355;BME280;8287;51.644;8.494;2023-07-13T11:30:49;100398.84;;;25.24;46.20
16355;BME280;8287;51.644;8.494;2023-07-13T11:33:19;100404.00;;;25.08;46.30
16355;BME280;8287;51.644;8.494;2023-07-13T11:35:58;100410.97;;;25.05;46.14
16355;BME280;8287;51.644;8.494;2023-07-13T11:38:31;100416.47;;;24.98;46.14
16355;BME280;8287;51.644;8.494;2023-07-13T11:41:03;100403.25;;;25.04;45.99
16355;BME280;8287;51.644;8.494;2023-07-13T11:43:30;100400.88;;;25.13;45.62
16355;BME280;8287;51.644;8.494;2023-07-13T11:46:11;100405.31;;;25.40;46.12
16355;BME280;8287;51.644;8.494;2023-07-13T11:48:38;100404.19;;;25.34;44.68
16355;BME280;8287;51.644;8.494;2023-07-13T11:51:15;100401.53;;;25.27;43.61
16355;BME280;8287;51.644;8.494;2023-07-13T11:53:47;100405.81;;;25.25;43.50
16355;BME280;8287;51.644;8.494;2023-07-13T11:56:15;100399.16;;;25.33;43.28
16355;BME280;8287;51.644;8.494;2023-07-13T11:58:42;100404.91;;;25.42;44.02
16355;BME280;8287;51.644;8.494;2023-07-13T12:01:17;100410.28;;;25.45;44.43
16355;BME280;8287;51.644;8.494;2023-07-13T12:03:45;100400.75;;;25.27;44.54
16355;BME280;8287;51.644;8.494;2023-07-13T12:06:24;100401.22;;;25.15;45.20
16355;BME280;8287;51.644;8.494;2023-07-13T12:08:51;100408.56;;;25.21;45.05
16355;BME280;8287;51.644;8.494;2023-07-13T12:11:18;100407.00;;;25.17;45.61
16355;BME280;8287;51.644;8.494;2023-07-13T12:13:46;100406.28;;;25.13;44.82
16355;BME280;8287;51.644;8.494;2023-07-13T12:16:25;100408.56;;;25.18;44.68
16355;BME280;8287;51.644;8.494;2023-07-13T12:18:56;100415.91;;;25.24;45.40
16355;BME280;8287;51.644;8.494;2023-07-13T12:21:29;100419.03;;;25.23;45.41
16355;BME280;8287;51.644;8.494;2023-07-13T12:23:57;100424.44;;;25.23;45.62
16355;BME280;8287;51.644;8.494;2023-07-13T12:26:24;100418.63;;;25.24;45.71
16355;BME280;8287;51.644;8.494;2023-07-13T12:28:52;100410.06;;;25.26;46.02
16355;BME280;8287;51.644;8.494;2023-07-13T12:31:30;100415.06;;;25.31;45.23
16355;BME280;8287;51.644;8.494;2023-07-13T12:33:59;100415.03;;;25.38;45.80
16355;BME280;8287;51.644;8.494;2023-07-13T12:36:30;100422.59;;;25.57;45.07
16355;BME280;8287;51.644;8.494;2023-07-13T12:39:11;100411.63;;;25.71;45.06
16355;BME280;8287;51.644;8.494;2023-07-13T12:41:38;100409.09;;;25.50;43.53
16355;BME280;8287;51.644;8.494;2023-07-13T12:44:10;100410.66;;;25.47;44.65
16355;BME280;8287;51.644;8.494;2023-07-13T12:46:38;100411.19;;;25.72;44.83
16355;BME280;8287;51.644;8.494;2023-07-13T12:49:06;100410.50;;;26.02;44.27
16355;BME280;8287;51.644;8.494;2023-07-13T12:51:36;100423.78;;;26.30;44.36
16355;BME280;8287;51.644;8.494;2023-07-13T12:54:15;100425.97;;;26.08;43.02
16355;BME280;8287;51.644;8.494;2023-07-13T12:56:43;100427.31;;;25.93;43.73
16355;BME280;8287;51.644;8.494;2023-07-13T12:59:16;100428.53;;;25.89;44.13
16355;BME280;8287;51.644;8.494;2023-07-13T13:01:45;100418.13;;;25.77;44.50
16355;BME280;8287;51.644;8.494;2023-07-13T13:04:12;100417.72;;;25.78;44.89
16355;BME280;8287;51.644;8.494;2023-07-13T13:06:40;100422.78;;;25.80;44.66
16355;BME280;8287;51.644;8.494;2023-07-13T13:09:12;100427.38;;;25.83;44.74